KPUC/PUC METAR and TAF weather

Enter ICAO airport designator
Station Type Date Time Source
KPUC METAR 2021/09/24 01:53 UTC NOAA

KPUC 240153Z AUTO 36011KT 10SM FEW120 18/M02 A3015 RMK AO2 SLP172 T01831017


Station Type Date Time Source
KPUC Decoded METAR 2021/09/24 01:53 UTC NOAA

PRICE CARBON COUNTY AIRPORT, UT, United States (KPUC) 39-37N 110-45W 2091M
Sep 23, 2021 - 09:53 PM EDT / 2021.09.24 0153 UTC
Wind: from the N (360 degrees) at 13 MPH (11 KT):0
Visibility: 10 mile(s):0
Sky conditions: mostly clear
Temperature: 64.9 F (18.3 C)
Dew Point: 28.9 F (-1.7 C)
Relative Humidity: 25%
Pressure (altimeter): 30.15 in. Hg (1020 hPa)
ob: KPUC 240153Z AUTO 36011KT 10SM FEW120 18/M02 A3015 RMK AO2 SLP172 T01831017
cycle: 2

Station Type Date Time Source
KPUC TAF UTC NOAA

Error!

Example: see airport list